sensor_id;sensor_type;location;lat;lon;timestamp;pressure;altitude;pressure_sealevel;temperature;humidity
28448;BME280;15675;52.870;-1.416;2023-04-07T00:00:18;101318.72;;;7.12;100.00
28448;BME280;15675;52.870;-1.416;2023-04-07T00:02:44;101323.88;;;7.12;100.00
28448;BME280;15675;52.870;-1.416;2023-04-07T00:05:09;101326.84;;;7.26;100.00
28448;BME280;15675;52.870;-1.416;2023-04-07T00:07:35;101324.09;;;7.52;100.00
28448;BME280;15675;52.870;-1.416;2023-04-07T00:10:00;101331.13;;;7.92;100.00
28448;BME280;15675;52.870;-1.416;2023-04-07T00:12:26;101317.78;;;8.12;100.00
28448;BME280;15675;52.870;-1.416;2023-04-07T00:14:51;101332.03;;;7.94;100.00
28448;BME280;15675;52.870;-1.416;2023-04-07T00:17:17;101325.84;;;8.24;100.00
28448;BME280;15675;52.870;-1.416;2023-04-07T00:19:42;101332.81;;;8.27;100.00
28448;BME280;15675;52.870;-1.416;2023-04-07T00:22:08;101330.22;;;8.27;99.69
28448;BME280;15675;52.870;-1.416;2023-04-07T00:24:34;101334.31;;;6.85;100.00
28448;BME280;15675;52.870;-1.416;2023-04-07T00:27:00;101335.47;;;6.95;100.00
28448;BME280;15675;52.870;-1.416;2023-04-07T00:29:25;101335.84;;;6.78;100.00
28448;BME280;15675;52.870;-1.416;2023-04-07T00:31:51;101342.28;;;6.93;100.00
28448;BME280;15675;52.870;-1.416;2023-04-07T00:34:16;101344.63;;;7.15;100.00
28448;BME280;15675;52.870;-1.416;2023-04-07T00:36:42;101348.06;;;7.14;100.00
28448;BME280;15675;52.870;-1.416;2023-04-07T00:39:07;101346.84;;;7.01;100.00
28448;BME280;15675;52.870;-1.416;2023-04-07T00:41:34;101350.13;;;6.67;100.00
28448;BME280;15675;52.870;-1.416;2023-04-07T00:44:00;101350.91;;;6.35;100.00
28448;BME280;15675;52.870;-1.416;2023-04-07T00:46:26;101353.44;;;6.34;100.00
28448;BME280;15675;52.870;-1.416;2023-04-07T00:48:52;101355.66;;;6.21;100.00
28448;BME280;15675;52.870;-1.416;2023-04-07T00:51:21;101357.69;;;6.04;100.00
28448;BME280;15675;52.870;-1.416;2023-04-07T00:53:48;101349.72;;;5.98;100.00
28448;BME280;15675;52.870;-1.416;2023-04-07T00:56:13;101350.97;;;6.10;100.00
28448;BME280;15675;52.870;-1.416;2023-04-07T00:58:39;101353.00;;;6.47;100.00
28448;BME280;15675;52.870;-1.416;2023-04-07T01:01:15;101362.25;;;6.13;100.00
28448;BME280;15675;52.870;-1.416;2023-04-07T01:06:25;101360.75;;;6.20;100.00
28448;BME280;15675;52.870;-1.416;2023-04-07T01:10:13;101363.56;;;6.28;100.00
28448;BME280;15675;52.870;-1.416;2023-04-07T01:15:09;101367.44;;;6.71;100.00
28448;BME280;15675;52.870;-1.416;2023-04-07T01:17:36;101364.13;;;6.75;100.00
28448;BME280;15675;52.870;-1.416;2023-04-07T01:20:06;101368.84;;;6.60;100.00
28448;BME280;15675;52.870;-1.416;2023-04-07T01:22:41;101370.09;;;6.16;100.00
28448;BME280;15675;52.870;-1.416;2023-04-07T01:27:46;101373.63;;;5.94;100.00
28448;BME280;15675;52.870;-1.416;2023-04-07T01:30:13;101370.91;;;5.90;100.00
28448;BME280;15675;52.870;-1.416;2023-04-07T01:32:42;101372.19;;;5.77;100.00
28448;BME280;15675;52.870;-1.416;2023-04-07T01:35:11;101371.38;;;5.78;100.00
28448;BME280;15675;52.870;-1.416;2023-04-07T01:37:37;101375.47;;;5.73;100.00
28448;BME280;15675;52.870;-1.416;2023-04-07T01:40:04;101373.00;;;5.76;100.00
28448;BME280;15675;52.870;-1.416;2023-04-07T01:42:33;101372.22;;;5.52;100.00
28448;BME280;15675;52.870;-1.416;2023-04-07T01:44:59;101373.13;;;5.53;100.00
28448;BME280;15675;52.870;-1.416;2023-04-07T01:47:27;101367.06;;;5.52;100.00
28448;BME280;15675;52.870;-1.416;2023-04-07T01:49:57;101369.50;;;5.48;100.00
28448;BME280;15675;52.870;-1.416;2023-04-07T01:52:25;101365.31;;;5.51;100.00
28448;BME280;15675;52.870;-1.416;2023-04-07T01:54:52;101375.84;;;5.58;100.00
28448;BME280;15675;52.870;-1.416;2023-04-07T01:57:18;101376.22;;;5.44;100.00
28448;BME280;15675;52.870;-1.416;2023-04-07T01:59:43;101372.69;;;5.41;100.00
28448;BME280;15675;52.870;-1.416;2023-04-07T02:02:09;101375.31;;;5.42;100.00
28448;BME280;15675;52.870;-1.416;2023-04-07T02:04:49;101381.56;;;5.25;100.00
28448;BME280;15675;52.870;-1.416;2023-04-07T02:07:26;101391.47;;;5.38;100.00
28448;BME280;15675;52.870;-1.416;2023-04-07T02:09:57;101386.78;;;5.26;100.00
28448;BME280;15675;52.870;-1.416;2023-04-07T02:12:29;101393.72;;;5.29;100.00
28448;BME280;15675;52.870;-1.416;2023-04-07T02:14:56;101389.94;;;5.19;100.00
28448;BME280;15675;52.870;-1.416;2023-04-07T02:17:23;101401.72;;;5.36;100.00
28448;BME280;15675;52.870;-1.416;2023-04-07T02:19:51;101406.00;;;5.36;100.00
28448;BME280;15675;52.870;-1.416;2023-04-07T02:22:18;101395.84;;;5.41;100.00
28448;BME280;15675;52.870;-1.416;2023-04-07T02:24:43;101403.25;;;5.31;100.00
28448;BME280;15675;52.870;-1.416;2023-04-07T02:27:09;101404.94;;;5.31;100.00
28448;BME280;15675;52.870;-1.416;2023-04-07T02:29:34;101398.34;;;5.38;100.00
28448;BME280;15675;52.870;-1.416;2023-04-07T02:32:00;101397.44;;;5.37;100.00
28448;BME280;15675;52.870;-1.416;2023-04-07T02:34:25;101394.75;;;5.58;100.00
28448;BME280;15675;52.870;-1.416;2023-04-07T02:36:51;101391.13;;;5.77;100.00
28448;BME280;15675;52.870;-1.416;2023-04-07T02:39:17;101368.03;;;6.06;100.00
28448;BME280;15675;52.870;-1.416;2023-04-07T02:41:42;101363.38;;;6.21;100.00
28448;BME280;15675;52.870;-1.416;2023-04-07T02:44:08;101371.22;;;6.25;100.00
28448;BME280;15675;52.870;-1.416;2023-04-07T02:46:33;101372.59;;;5.89;100.00
28448;BME280;15675;52.870;-1.416;2023-04-07T02:48:59;101366.38;;;5.82;100.00
28448;BME280;15675;52.870;-1.416;2023-04-07T02:51:25;101369.22;;;5.90;100.00
28448;BME280;15675;52.870;-1.416;2023-04-07T02:53:51;101365.88;;;5.94;100.00
28448;BME280;15675;52.870;-1.416;2023-04-07T02:56:17;101368.28;;;6.14;100.00
28448;BME280;15675;52.870;-1.416;2023-04-07T02:58:42;101360.81;;;6.21;100.00
28448;BME280;15675;52.870;-1.416;2023-04-07T03:01:08;101366.06;;;6.25;100.00
28448;BME280;15675;52.870;-1.416;2023-04-07T03:03:33;101368.69;;;5.49;100.00
28448;BME280;15675;52.870;-1.416;2023-04-07T03:05:59;101378.53;;;5.36;100.00
28448;BME280;15675;52.870;-1.416;2023-04-07T03:08:25;101376.41;;;5.25;100.00
28448;BME280;15675;52.870;-1.416;2023-04-07T03:10:51;101371.47;;;5.31;100.00
28448;BME280;15675;52.870;-1.416;2023-04-07T03:13:17;101381.22;;;5.40;100.00
28448;BME280;15675;52.870;-1.416;2023-04-07T03:15:44;101381.81;;;5.32;100.00
28448;BME280;15675;52.870;-1.416;2023-04-07T03:18:09;101379.91;;;5.03;100.00
28448;BME280;15675;52.870;-1.416;2023-04-07T03:20:36;101384.56;;;4.90;100.00
28448;BME280;15675;52.870;-1.416;2023-04-07T03:23:02;101382.63;;;5.07;100.00
28448;BME280;15675;52.870;-1.416;2023-04-07T03:25:27;101387.31;;;5.17;100.00
28448;BME280;15675;52.870;-1.416;2023-04-07T03:27:53;101386.81;;;5.28;100.00
28448;BME280;15675;52.870;-1.416;2023-04-07T03:30:19;101389.09;;;5.20;100.00
28448;BME280;15675;52.870;-1.416;2023-04-07T03:32:45;101398.44;;;4.94;100.00
28448;BME280;15675;52.870;-1.416;2023-04-07T03:35:10;101397.69;;;4.96;100.00
28448;BME280;15675;52.870;-1.416;2023-04-07T03:37:36;101398.66;;;5.00;100.00
28448;BME280;15675;52.870;-1.416;2023-04-07T03:40:01;101397.47;;;5.14;100.00
28448;BME280;15675;52.870;-1.416;2023-04-07T03:42:27;101411.16;;;5.36;100.00
28448;BME280;15675;52.870;-1.416;2023-04-07T03:44:52;101410.47;;;5.17;100.00
28448;BME280;15675;52.870;-1.416;2023-04-07T03:47:18;101409.28;;;4.85;100.00
28448;BME280;15675;52.870;-1.416;2023-04-07T03:49:43;101409.53;;;4.93;100.00
28448;BME280;15675;52.870;-1.416;2023-04-07T03:52:09;101405.34;;;4.95;100.00
28448;BME280;15675;52.870;-1.416;2023-04-07T03:54:35;101406.28;;;4.97;100.00
28448;BME280;15675;52.870;-1.416;2023-04-07T03:57:01;101411.84;;;5.08;100.00
28448;BME280;15675;52.870;-1.416;2023-04-07T03:59:27;101409.69;;;5.20;100.00
28448;BME280;15675;52.870;-1.416;2023-04-07T04:01:53;101407.97;;;4.96;100.00
28448;BME280;15675;52.870;-1.416;2023-04-07T04:04:18;101411.28;;;5.16;100.00
28448;BME280;15675;52.870;-1.416;2023-04-07T04:06:44;101412.09;;;5.15;100.00
28448;BME280;15675;52.870;-1.416;2023-04-07T04:09:09;101408.47;;;4.86;100.00
28448;BME280;15675;52.870;-1.416;2023-04-07T04:11:35;101410.63;;;4.75;100.00
28448;BME280;15675;52.870;-1.416;2023-04-07T04:14:00;101419.16;;;4.53;100.00
28448;BME280;15675;52.870;-1.416;2023-04-07T04:16:26;101417.53;;;4.76;100.00
28448;BME280;15675;52.870;-1.416;2023-04-07T04:18:51;101422.06;;;4.83;100.00
28448;BME280;15675;52.870;-1.416;2023-04-07T04:21:17;101417.97;;;4.89;100.00
28448;BME280;15675;52.870;-1.416;2023-04-07T04:23:43;101417.09;;;5.11;100.00
28448;BME280;15675;52.870;-1.416;2023-04-07T04:26:08;101429.88;;;4.64;100.00
28448;BME280;15675;52.870;-1.416;2023-04-07T04:28:34;101427.59;;;4.49;100.00
28448;BME280;15675;52.870;-1.416;2023-04-07T04:30:59;101424.22;;;4.73;100.00
28448;BME280;15675;52.870;-1.416;2023-04-07T04:33:25;101430.00;;;4.67;100.00
28448;BME280;15675;52.870;-1.416;2023-04-07T04:35:51;101430.34;;;4.54;100.00
28448;BME280;15675;52.870;-1.416;2023-04-07T04:38:16;101435.81;;;4.40;100.00
28448;BME280;15675;52.870;-1.416;2023-04-07T04:40:42;101444.09;;;4.33;100.00
28448;BME280;15675;52.870;-1.416;2023-04-07T04:43:07;101452.13;;;4.20;100.00
28448;BME280;15675;52.870;-1.416;2023-04-07T04:45:34;101447.34;;;4.50;100.00
28448;BME280;15675;52.870;-1.416;2023-04-07T04:48:00;101446.66;;;4.54;100.00
28448;BME280;15675;52.870;-1.416;2023-04-07T04:50:26;101460.41;;;4.77;100.00
28448;BME280;15675;52.870;-1.416;2023-04-07T04:52:51;101454.41;;;4.77;100.00
28448;BME280;15675;52.870;-1.416;2023-04-07T04:55:17;101460.84;;;4.88;100.00
28448;BME280;15675;52.870;-1.416;2023-04-07T04:57:42;101472.13;;;4.69;100.00
28448;BME280;15675;52.870;-1.416;2023-04-07T05:00:08;101462.06;;;4.75;100.00
28448;BME280;15675;52.870;-1.416;2023-04-07T05:02:35;101467.34;;;4.57;100.00
28448;BME280;15675;52.870;-1.416;2023-04-07T05:05:00;101470.41;;;4.70;100.00
28448;BME280;15675;52.870;-1.416;2023-04-07T05:07:26;101468.66;;;4.47;100.00
28448;BME280;15675;52.870;-1.416;2023-04-07T05:09:51;101466.41;;;4.55;100.00
28448;BME280;15675;52.870;-1.416;2023-04-07T05:12:17;101470.13;;;4.41;100.00
28448;BME280;15675;52.870;-1.416;2023-04-07T05:14:43;101473.25;;;4.55;100.00
28448;BME280;15675;52.870;-1.416;2023-04-07T05:17:08;101483.41;;;4.52;100.00
28448;BME280;15675;52.870;-1.416;2023-04-07T05:19:34;101480.22;;;4.36;100.00
28448;BME280;15675;52.870;-1.416;2023-04-07T05:21:59;101485.06;;;4.09;100.00
28448;BME280;15675;52.870;-1.416;2023-04-07T05:24:27;101487.84;;;4.13;100.00
28448;BME280;15675;52.870;-1.416;2023-04-07T05:26:53;101484.06;;;4.05;100.00
28448;BME280;15675;52.870;-1.416;2023-04-07T05:29:18;101487.50;;;4.06;100.00
28448;BME280;15675;52.870;-1.416;2023-04-07T05:31:44;101494.09;;;4.20;100.00
28448;BME280;15675;52.870;-1.416;2023-04-07T05:34:09;101494.03;;;4.19;100.00
28448;BME280;15675;52.870;-1.416;2023-04-07T05:36:35;101503.78;;;4.26;100.00
28448;BME280;15675;52.870;-1.416;2023-04-07T05:39:00;101501.69;;;4.17;100.00
28448;BME280;15675;52.870;-1.416;2023-04-07T05:41:26;101506.06;;;4.39;100.00
28448;BME280;15675;52.870;-1.416;2023-04-07T05:43:51;101504.34;;;4.40;100.00
28448;BME280;15675;52.870;-1.416;2023-04-07T05:46:17;101506.19;;;4.42;100.00
28448;BME280;15675;52.870;-1.416;2023-04-07T05:48:42;101519.66;;;4.58;100.00
28448;BME280;15675;52.870;-1.416;2023-04-07T05:51:08;101518.72;;;4.56;100.00
28448;BME280;15675;52.870;-1.416;2023-04-07T05:53:33;101508.34;;;4.75;100.00
28448;BME280;15675;52.870;-1.416;2023-04-07T05:55:59;101511.69;;;4.52;100.00
28448;BME280;15675;52.870;-1.416;2023-04-07T05:58:25;101515.34;;;5.00;100.00
28448;BME280;15675;52.870;-1.416;2023-04-07T06:00:50;101521.91;;;4.71;100.00
28448;BME280;15675;52.870;-1.416;2023-04-07T06:03:15;101519.09;;;4.86;100.00
28448;BME280;15675;52.870;-1.416;2023-04-07T06:05:41;101519.94;;;5.08;100.00
28448;BME280;15675;52.870;-1.416;2023-04-07T06:08:10;101516.22;;;5.01;100.00
28448;BME280;15675;52.870;-1.416;2023-04-07T06:10:36;101515.06;;;4.72;100.00
28448;BME280;15675;52.870;-1.416;2023-04-07T06:13:01;101520.97;;;4.69;100.00
28448;BME280;15675;52.870;-1.416;2023-04-07T06:15:27;101528.97;;;4.98;100.00
28448;BME280;15675;52.870;-1.416;2023-04-07T06:17:52;101524.22;;;5.09;100.00
28448;BME280;15675;52.870;-1.416;2023-04-07T06:20:18;101533.00;;;4.70;100.00
28448;BME280;15675;52.870;-1.416;2023-04-07T06:22:46;101534.03;;;4.74;100.00
28448;BME280;15675;52.870;-1.416;2023-04-07T06:25:11;101536.13;;;5.05;100.00
28448;BME280;15675;52.870;-1.416;2023-04-07T06:27:37;101544.75;;;5.07;100.00
28448;BME280;15675;52.870;-1.416;2023-04-07T06:30:02;101545.41;;;5.01;100.00
28448;BME280;15675;52.870;-1.416;2023-04-07T06:32:28;101552.34;;;5.25;100.00
28448;BME280;15675;52.870;-1.416;2023-04-07T06:34:53;101553.03;;;5.21;100.00
28448;BME280;15675;52.870;-1.416;2023-04-07T06:37:19;101557.44;;;5.24;100.00
28448;BME280;15675;52.870;-1.416;2023-04-07T06:39:45;101560.63;;;5.18;100.00
28448;BME280;15675;52.870;-1.416;2023-04-07T06:42:10;101564.78;;;5.14;100.00
28448;BME280;15675;52.870;-1.416;2023-04-07T06:44:36;101559.63;;;5.14;100.00
28448;BME280;15675;52.870;-1.416;2023-04-07T06:47:01;101557.16;;;5.63;100.00
28448;BME280;15675;52.870;-1.416;2023-04-07T06:49:27;101560.59;;;5.62;100.00
28448;BME280;15675;52.870;-1.416;2023-04-07T06:51:52;101565.38;;;5.52;100.00
28448;BME280;15675;52.870;-1.416;2023-04-07T06:54:18;101565.63;;;5.36;100.00
28448;BME280;15675;52.870;-1.416;2023-04-07T06:56:44;101569.28;;;5.20;100.00
28448;BME280;15675;52.870;-1.416;2023-04-07T06:59:09;101571.13;;;5.45;100.00
28448;BME280;15675;52.870;-1.416;2023-04-07T07:01:35;101571.53;;;5.33;100.00
28448;BME280;15675;52.870;-1.416;2023-04-07T07:04:02;101574.56;;;5.68;100.00
28448;BME280;15675;52.870;-1.416;2023-04-07T07:06:29;101579.06;;;5.74;100.00
28448;BME280;15675;52.870;-1.416;2023-04-07T07:08:56;101577.75;;;6.08;100.00
28448;BME280;15675;52.870;-1.416;2023-04-07T07:11:21;101574.81;;;6.21;100.00
28448;BME280;15675;52.870;-1.416;2023-04-07T07:13:47;101576.78;;;5.82;100.00
28448;BME280;15675;52.870;-1.416;2023-04-07T07:16:12;101579.31;;;6.03;100.00
28448;BME280;15675;52.870;-1.416;2023-04-07T07:18:38;101581.88;;;6.03;100.00
28448;BME280;15675;52.870;-1.416;2023-04-07T07:21:04;101572.03;;;6.17;100.00
28448;BME280;15675;52.870;-1.416;2023-04-07T07:23:29;101582.94;;;6.34;100.00
28448;BME280;15675;52.870;-1.416;2023-04-07T07:25:55;101576.25;;;6.39;100.00
28448;BME280;15675;52.870;-1.416;2023-04-07T07:28:20;101582.63;;;6.49;100.00
28448;BME280;15675;52.870;-1.416;2023-04-07T07:30:46;101589.63;;;6.53;100.00
28448;BME280;15675;52.870;-1.416;2023-04-07T07:33:12;101590.31;;;6.73;100.00
28448;BME280;15675;52.870;-1.416;2023-04-07T07:35:38;101585.75;;;7.19;100.00
28448;BME280;15675;52.870;-1.416;2023-04-07T07:38:04;101582.16;;;7.42;100.00
28448;BME280;15675;52.870;-1.416;2023-04-07T07:40:31;101589.22;;;7.21;100.00
28448;BME280;15675;52.870;-1.416;2023-04-07T07:42:57;101597.09;;;7.24;100.00
28448;BME280;15675;52.870;-1.416;2023-04-07T07:45:22;101592.44;;;7.41;100.00
28448;BME280;15675;52.870;-1.416;2023-04-07T07:47:48;101592.91;;;7.56;100.00
28448;BME280;15675;52.870;-1.416;2023-04-07T07:50:13;101585.88;;;7.81;100.00
28448;BME280;15675;52.870;-1.416;2023-04-07T07:52:39;101592.00;;;7.85;100.00
28448;BME280;15675;52.870;-1.416;2023-04-07T07:55:05;101590.03;;;8.06;100.00
28448;BME280;15675;52.870;-1.416;2023-04-07T07:57:30;101586.44;;;8.01;100.00
28448;BME280;15675;52.870;-1.416;2023-04-07T07:59:56;101588.19;;;8.02;100.00
28448;BME280;15675;52.870;-1.416;2023-04-07T08:02:22;101580.72;;;8.13;100.00
28448;BME280;15675;52.870;-1.416;2023-04-07T08:04:50;101579.94;;;8.48;100.00
28448;BME280;15675;52.870;-1.416;2023-04-07T08:07:16;101581.81;;;8.53;100.00
28448;BME280;15675;52.870;-1.416;2023-04-07T08:09:41;101579.25;;;8.55;100.00
28448;BME280;15675;52.870;-1.416;2023-04-07T08:12:07;101587.75;;;8.49;100.00
28448;BME280;15675;52.870;-1.416;2023-04-07T08:14:32;101586.06;;;8.19;100.00
28448;BME280;15675;52.870;-1.416;2023-04-07T08:16:58;101590.97;;;8.74;100.00
28448;BME280;15675;52.870;-1.416;2023-04-07T08:19:23;101587.81;;;8.52;100.00
28448;BME280;15675;52.870;-1.416;2023-04-07T08:21:49;101585.66;;;8.69;100.00
28448;BME280;15675;52.870;-1.416;2023-04-07T08:24:15;101596.00;;;9.03;100.00
28448;BME280;15675;52.870;-1.416;2023-04-07T08:26:40;101603.56;;;9.31;97.08
28448;BME280;15675;52.870;-1.416;2023-04-07T08:29:06;101596.69;;;9.32;94.92
28448;BME280;15675;52.870;-1.416;2023-04-07T08:31:31;101592.88;;;9.98;92.91
28448;BME280;15675;52.870;-1.416;2023-04-07T08:33:57;101595.94;;;9.79;89.59
28448;BME280;15675;52.870;-1.416;2023-04-07T08:36:24;101596.38;;;9.58;89.58
28448;BME280;15675;52.870;-1.416;2023-04-07T08:38:49;101595.38;;;9.92;89.68
28448;BME280;15675;52.870;-1.416;2023-04-07T08:41:17;101595.09;;;10.23;85.50
28448;BME280;15675;52.870;-1.416;2023-04-07T08:43:46;101588.13;;;9.77;81.86
28448;BME280;15675;52.870;-1.416;2023-04-07T08:46:14;101582.84;;;10.15;80.53
28448;BME280;15675;52.870;-1.416;2023-04-07T08:48:42;101586.78;;;10.39;78.16
28448;BME280;15675;52.870;-1.416;2023-04-07T08:51:09;101587.06;;;10.10;75.28
28448;BME280;15675;52.870;-1.416;2023-04-07T08:53:47;101582.53;;;10.44;75.05
28448;BME280;15675;52.870;-1.416;2023-04-07T08:56:17;101582.97;;;10.67;74.74
28448;BME280;15675;52.870;-1.416;2023-04-07T08:58:44;101579.72;;;10.33;71.26
28448;BME280;15675;52.870;-1.416;2023-04-07T09:01:10;101587.50;;;10.81;69.65
28448;BME280;15675;52.870;-1.416;2023-04-07T09:03:37;101592.97;;;10.98;70.88
28448;BME280;15675;52.870;-1.416;2023-04-07T09:06:02;101580.59;;;10.83;69.80
28448;BME280;15675;52.870;-1.416;2023-04-07T09:08:28;101589.88;;;11.22;69.33
28448;BME280;15675;52.870;-1.416;2023-04-07T09:10:56;101589.56;;;11.63;67.88
28448;BME280;15675;52.870;-1.416;2023-04-07T09:13:23;101589.81;;;10.65;65.95
28448;BME280;15675;52.870;-1.416;2023-04-07T09:15:49;101588.56;;;10.94;66.58
28448;BME280;15675;52.870;-1.416;2023-04-07T09:18:15;101583.41;;;10.95;64.33
28448;BME280;15675;52.870;-1.416;2023-04-07T09:21:00;101586.50;;;11.29;64.81
28448;BME280;15675;52.870;-1.416;2023-04-07T09:25:57;101587.78;;;11.57;63.85
28448;BME280;15675;52.870;-1.416;2023-04-07T09:32:35;101588.31;;;12.01;63.19
28448;BME280;15675;52.870;-1.416;2023-04-07T09:38:08;101580.72;;;12.18;64.82
28448;BME280;15675;52.870;-1.416;2023-04-07T09:41:04;101573.88;;;12.29;63.14
28448;BME280;15675;52.870;-1.416;2023-04-07T09:43:55;101578.41;;;11.70;62.21
28448;BME280;15675;52.870;-1.416;2023-04-07T09:46:53;101589.72;;;11.75;65.25
28448;BME280;15675;52.870;-1.416;2023-04-07T09:49:49;101583.69;;;11.78;64.95
28448;BME280;15675;52.870;-1.416;2023-04-07T09:52:53;101586.19;;;11.70;63.79
28448;BME280;15675;52.870;-1.416;2023-04-07T09:55:38;101584.69;;;11.88;64.71
28448;BME280;15675;52.870;-1.416;2023-04-07T09:58:05;101581.88;;;11.72;64.86
28448;BME280;15675;52.870;-1.416;2023-04-07T10:00:31;101588.88;;;11.77;64.58
28448;BME280;15675;52.870;-1.416;2023-04-07T10:02:57;101579.44;;;11.85;65.37
28448;BME280;15675;52.870;-1.416;2023-04-07T10:05:24;101570.78;;;11.84;65.43
28448;BME280;15675;52.870;-1.416;2023-04-07T10:07:49;101570.25;;;12.12;66.33
28448;BME280;15675;52.870;-1.416;2023-04-07T10:10:15;101575.00;;;12.56;64.65
28448;BME280;15675;52.870;-1.416;2023-04-07T10:12:42;101566.19;;;12.40;63.49
28448;BME280;15675;52.870;-1.416;2023-04-07T10:15:09;101571.34;;;12.38;64.71
28448;BME280;15675;52.870;-1.416;2023-04-07T10:17:37;101573.41;;;11.87;65.86
28448;BME280;15675;52.870;-1.416;2023-04-07T10:20:05;101566.03;;;12.24;68.07
28448;BME280;15675;52.870;-1.416;2023-04-07T10:22:32;101568.91;;;12.52;64.31
28448;BME280;15675;52.870;-1.416;2023-04-07T10:25:05;101574.84;;;12.39;64.14
28448;BME280;15675;52.870;-1.416;2023-04-07T10:27:44;101578.50;;;11.81;66.87
28448;BME280;15675;52.870;-1.416;2023-04-07T10:30:17;101579.41;;;11.80;65.35
28448;BME280;15675;52.870;-1.416;2023-04-07T10:32:49;101570.44;;;12.30;63.01
28448;BME280;15675;52.870;-1.416;2023-04-07T10:35:16;101566.25;;;12.49;61.19
28448;BME280;15675;52.870;-1.416;2023-04-07T10:40:33;101562.00;;;12.57;61.15
28448;BME280;15675;52.870;-1.416;2023-04-07T10:42:59;101564.06;;;12.95;60.20
28448;BME280;15675;52.870;-1.416;2023-04-07T10:45:55;101570.09;;;12.93;60.36
28448;BME280;15675;52.870;-1.416;2023-04-07T10:48:22;101567.75;;;13.33;61.62
28448;BME280;15675;52.870;-1.416;2023-04-07T10:53:31;101564.91;;;12.94;62.45
28448;BME280;15675;52.870;-1.416;2023-04-07T10:55:58;101569.31;;;13.05;62.60
28448;BME280;15675;52.870;-1.416;2023-04-07T10:58:28;101560.09;;;13.58;60.89
28448;BME280;15675;52.870;-1.416;2023-04-07T11:03:56;101564.34;;;13.36;62.68
28448;BME280;15675;52.870;-1.416;2023-04-07T11:06:22;101560.06;;;13.47;61.90
28448;BME280;15675;52.870;-1.416;2023-04-07T11:08:48;101550.50;;;13.54;62.06
28448;BME280;15675;52.870;-1.416;2023-04-07T11:11:19;101552.81;;;13.04;62.64
28448;BME280;15675;52.870;-1.416;2023-04-07T11:13:47;101556.03;;;12.72;58.47
28448;BME280;15675;52.870;-1.416;2023-04-07T11:16:14;101557.22;;;13.15;59.15
28448;BME280;15675;52.870;-1.416;2023-04-07T11:18:41;101560.94;;;13.54;60.17
28448;BME280;15675;52.870;-1.416;2023-04-07T11:21:07;101559.22;;;13.60;59.58
28448;BME280;15675;52.870;-1.416;2023-04-07T11:23:52;101554.94;;;13.69;57.54
28448;BME280;15675;52.870;-1.416;2023-04-07T11:26:17;101551.47;;;12.47;53.91
28448;BME280;15675;52.870;-1.416;2023-04-07T11:28:49;101550.97;;;12.92;54.15
28448;BME280;15675;52.870;-1.416;2023-04-07T11:31:24;101546.25;;;13.70;51.14
28448;BME280;15675;52.870;-1.416;2023-04-07T11:33:54;101531.50;;;13.84;50.40
28448;BME280;15675;52.870;-1.416;2023-04-07T11:36:39;101542.84;;;13.95;52.08
28448;BME280;15675;52.870;-1.416;2023-04-07T11:39:17;101543.72;;;13.99;52.22
28448;BME280;15675;52.870;-1.416;2023-04-07T11:41:46;101548.66;;;13.33;51.77
28448;BME280;15675;52.870;-1.416;2023-04-07T11:44:12;101554.47;;;12.94;54.30
28448;BME280;15675;52.870;-1.416;2023-04-07T11:46:58;101545.13;;;13.27;50.92
28448;BME280;15675;52.870;-1.416;2023-04-07T11:49:25;101550.72;;;12.57;51.25
28448;BME280;15675;52.870;-1.416;2023-04-07T11:51:59;101544.19;;;13.11;49.85
28448;BME280;15675;52.870;-1.416;2023-04-07T11:54:25;101545.16;;;13.34;49.76
28448;BME280;15675;52.870;-1.416;2023-04-07T11:56:50;101540.97;;;13.62;50.08
28448;BME280;15675;52.870;-1.416;2023-04-07T11:59:21;101537.56;;;13.78;50.60
28448;BME280;15675;52.870;-1.416;2023-04-07T12:01:48;101530.53;;;13.54;49.45
28448;BME280;15675;52.870;-1.416;2023-04-07T12:04:14;101530.69;;;14.11;50.18
28448;BME280;15675;52.870;-1.416;2023-04-07T12:06:44;101532.41;;;13.94;49.52
28448;BME280;15675;52.870;-1.416;2023-04-07T12:09:30;101527.22;;;14.22;48.33
28448;BME280;15675;52.870;-1.416;2023-04-07T12:11:57;101539.41;;;14.21;49.96
28448;BME280;15675;52.870;-1.416;2023-04-07T12:14:26;101538.56;;;14.24;48.80
28448;BME280;15675;52.870;-1.416;2023-04-07T12:16:52;101540.31;;;14.49;47.84
28448;BME280;15675;52.870;-1.416;2023-04-07T12:19:21;101534.09;;;13.81;48.24
28448;BME280;15675;52.870;-1.416;2023-04-07T12:21:47;101540.88;;;13.36;47.16
28448;BME280;15675;52.870;-1.416;2023-04-07T12:24:13;101549.50;;;13.28;49.60
28448;BME280;15675;52.870;-1.416;2023-04-07T12:26:38;101537.31;;;13.32;48.65
28448;BME280;15675;52.870;-1.416;2023-04-07T12:29:04;101518.31;;;13.47;47.70
28448;BME280;15675;52.870;-1.416;2023-04-07T12:31:31;101538.22;;;13.33;48.03
28448;BME280;15675;52.870;-1.416;2023-04-07T12:33:57;101536.28;;;13.05;47.80
28448;BME280;15675;52.870;-1.416;2023-04-07T12:36:24;101538.94;;;13.10;49.12
28448;BME280;15675;52.870;-1.416;2023-04-07T12:38:50;101527.13;;;13.75;48.18
28448;BME280;15675;52.870;-1.416;2023-04-07T12:41:15;101532.28;;;13.61;46.59
28448;BME280;15675;52.870;-1.416;2023-04-07T12:43:41;101525.94;;;13.18;46.81
28448;BME280;15675;52.870;-1.416;2023-04-07T12:46:06;101536.53;;;13.42;47.64
28448;BME280;15675;52.870;-1.416;2023-04-07T12:51:14;101515.84;;;13.81;45.84
28448;BME280;15675;52.870;-1.416;2023-04-07T12:53:40;101533.31;;;14.05;44.74
28448;BME280;15675;52.870;-1.416;2023-04-07T12:56:06;101528.94;;;14.06;45.36
28448;BME280;15675;52.870;-1.416;2023-04-07T12:58:31;101530.66;;;14.04;44.19
28448;BME280;15675;52.870;-1.416;2023-04-07T13:00:57;101533.22;;;13.76;45.04
28448;BME280;15675;52.870;-1.416;2023-04-07T13:03:22;101528.09;;;14.39;43.81
28448;BME280;15675;52.870;-1.416;2023-04-07T13:05:48;101527.25;;;14.43;44.93
28448;BME280;15675;52.870;-1.416;2023-04-07T13:08:14;101529.00;;;14.44;44.87
28448;BME280;15675;52.870;-1.416;2023-04-07T13:10:40;101522.91;;;14.50;43.58